Station Historical Data
Daily Summary for July 31, 2012 Units:  Metric    English   Both
« Previous Day
Next Day »
Daily Weekly Monthly Yearly Custom
  High: Low: Average:
Temperature: 33.1 °C 22.2 °C 27.9 °C
Dew Point: 25.9 °C 21.1 °C 23.5 °C
Humidity: 93% 55% 78%
Wind Speed: 12.9km/h 0km/h 3.5km/h
Wind Gust: 20.9km/h - -
Wind- - WSW
Pressure: 1011.7 hPa 1009 hPa -
Precipitation: 5.59 mm    
Historical Graphs
 
 
Tabular Data for July 31, 2012
Time Temperature Dew Point Pressure Wind Wind Speed Wind Gust Humidity Rainfall Rate (Hourly) Conditions
00:00 26.6 °C 24.4 °C 1011.7 hPa ESE 4.8 km/h 4.8 km/h 88% 0 mm
00:03 26.4 °C 24.3 °C 1011.7 hPa ESE 3.2 km/h 4.8 km/h 88% 0 mm
00:08 26.4 °C 24.2 °C 1011.7 hPa ESE 4.8 km/h 4.8 km/h 88% 0 mm
00:13 26.3 °C 24.2 °C 1011.4 hPa ESE 6.4 km/h 6.4 km/h 88% 0 mm
00:18 26.2 °C 24.3 °C 1011.4 hPa ESE 6.4 km/h 8 km/h 89% 0 mm
00:23 26.3 °C 24.3 °C 1011.4 hPa ESE 4.8 km/h 8 km/h 89% 0 mm
00:28 26.3 °C 24.2 °C 1011.1 hPa SE 6.4 km/h 8 km/h 88% 0 mm
00:33 26.4 °C 24.2 °C 1011.4 hPa SE 4.8 km/h 8 km/h 88% 0 mm
00:38 26.3 °C 24.2 °C 1011.4 hPa Calm   3.2 km/h 88% 0 mm
00:43 26.3 °C 24.1 °C 1011.4 hPa Calm   1.6 km/h 88% 0 mm
00:48 26.2 °C 24.3 °C 1011.4 hPa Calm   1.6 km/h 89% 0 mm
00:53 26.2 °C 24.3 °C 1011.4 hPa SSE 3.2 km/h 3.2 km/h 89% 0 mm
00:58 26.2 °C 24.3 °C 1011.4 hPa ESE 1.6 km/h 1.6 km/h 89% 0 mm
01:03 26.2 °C 24.3 °C 1011.1 hPa ESE 6.4 km/h 6.4 km/h 89% 0 mm
01:08 26.2 °C 24.2 °C 1011.1 hPa ESE 3.2 km/h 4.8 km/h 89% 0 mm
01:13 26.1 °C 24.2 °C 1011.1 hPa Calm   1.6 km/h 89% 0 mm
01:18 26.1 °C 24.1 °C 1011.1 hPa SW 3.2 km/h 3.2 km/h 89% 0 mm
01:23 26.1 °C 24.3 °C 1011.1 hPa South 3.2 km/h 4.8 km/h 90% 0 mm
01:28 26.1 °C 24.2 °C 1011.1 hPa SSE 3.2 km/h 4.8 km/h 89% 0 mm
01:33 26.2 °C 24.2 °C 1010.7 hPa SSW 3.2 km/h 4.8 km/h 89% 0 mm
01:38 26.2 °C 24.3 °C 1010.7 hPa SSW 1.6 km/h 4.8 km/h 89% 0 mm
01:43 26.2 °C 24.3 °C 1010.4 hPa SW 1.6 km/h 4.8 km/h 89% 0 mm
01:48 26.2 °C 24.3 °C 1010 hPa SSE 3.2 km/h 6.4 km/h 89% 0 mm
01:53 26.2 °C 24.3 °C 1009.7 hPa SSE 1.6 km/h 3.2 km/h 89% 0 mm
01:58 26.2 °C 24.2 °C 1009.7 hPa South 3.2 km/h 3.2 km/h 89% 0 mm
02:03 26.1 °C 24.2 °C 1009.7 hPa SSW 3.2 km/h 3.2 km/h 89% 0 mm
02:08 26.1 °C 24.2 °C 1009.7 hPa SSW 1.6 km/h 3.2 km/h 89% 0 mm
02:13 26.1 °C 24.2 °C 1009.7 hPa SE 1.6 km/h 3.2 km/h 89% 0 mm
02:18 26.1 °C 24.2 °C 1010 hPa Calm     89% 0 mm
02:23 26.1 °C 24.3 °C 1010 hPa SE 1.6 km/h 1.6 km/h 90% 0 mm
02:28 25.9 °C 24.2 °C 1010 hPa NNE 1.6 km/h 3.2 km/h 90% 0 mm
02:33 25.9 °C 24.1 °C 1010 hPa Calm   1.6 km/h 90% 0 mm
02:38 25.7 °C 23.9 °C 1010 hPa West 1.6 km/h 1.6 km/h 90% 0 mm
02:43 25.8 °C 24.2 °C 1009.7 hPa Calm   6.4 km/h 91% 0 mm
02:48 25.7 °C 24.2 °C 1009.7 hPa WSW 4.8 km/h 8 km/h 91% 0 mm
02:53 25.8 °C 24.3 °C 1010 hPa WSW 3.2 km/h 6.4 km/h 91% 0 mm
02:58 25.8 °C 24.3 °C 1010 hPa WSW 4.8 km/h 4.8 km/h 91% 0 mm
03:03 25.8 °C 24.3 °C 1010 hPa West 1.6 km/h 3.2 km/h 91% 0 mm
03:08 25.8 °C 24.3 °C 1010 hPa Calm   4.8 km/h 91% 0 mm
03:13 25.8 °C 24.3 °C 1010 hPa WNW 3.2 km/h 4.8 km/h 91% 0 mm
03:18 25.8 °C 24.3 °C 1010 hPa WSW 3.2 km/h 4.8 km/h 91% 0 mm
03:23 25.8 °C 24.2 °C 1010 hPa West 4.8 km/h 9.7 km/h 91% 0 mm
03:29 25.8 °C 24.2 °C 1009.7 hPa WSW 4.8 km/h 6.4 km/h 91% 0 mm
03:34 25.7 °C 24.2 °C 1009.4 hPa West 6.4 km/h 6.4 km/h 91% 0 mm
03:39 25.7 °C 24.2 °C 1009.4 hPa Calm   4.8 km/h 91% 0 mm
03:44 25.7 °C 24.1 °C 1009.4 hPa WSW 4.8 km/h 6.4 km/h 91% 0 mm
03:49 25.6 °C 24.1 °C 1009.4 hPa West 1.6 km/h 6.4 km/h 91% 0 mm
03:54 25.6 °C 24.1 °C 1009.4 hPa SW 4.8 km/h 8 km/h 91% 0 mm
03:59 25.6 °C 24.1 °C 1009.4 hPa SW 4.8 km/h 8 km/h 91% 0 mm
04:04 25.6 °C 24.1 °C 1009.7 hPa SW 4.8 km/h 8 km/h 91% 0 mm
04:09 25.6 °C 24.1 °C 1009.7 hPa SW 3.2 km/h 8 km/h 91% 0 mm
04:14 25.7 °C 23.9 °C 1009.7 hPa WSW 6.4 km/h 8 km/h 90% 0 mm
04:19 25.7 °C 23.9 °C 1009.7 hPa SW 8 km/h 9.7 km/h 90% 0 mm
04:24 25.7 °C 23.9 °C 1009.7 hPa West 8 km/h 11.3 km/h 90% 0 mm
04:29 25.6 °C 23.5 °C 1009.4 hPa WSW 12.9 km/h 14.5 km/h 88% 0 mm
04:34 25.6 °C 23.7 °C 1009.7 hPa West 6.4 km/h 8 km/h 89% 0 mm
04:39 25.4 °C 23.3 °C 1009.4 hPa WSW 8 km/h 11.3 km/h 88% 0 mm
04:44 25.4 °C 23.3 °C 1009.7 hPa WSW 6.4 km/h 11.3 km/h 88% 0 mm
04:49 25.3 °C 23.2 °C 1009.7 hPa WSW 6.4 km/h 16.1 km/h 88% 0 mm
04:54 25.1 °C 23 °C 1010 hPa WSW 4.8 km/h 8 km/h 88% 0 mm
04:59 25 °C 23.1 °C 1010 hPa WSW 6.4 km/h 8 km/h 89% 0 mm
05:04 24.8 °C 22.9 °C 1009.7 hPa WSW 8 km/h 8 km/h 89% 0 mm
05:09 24.6 °C 22.7 °C 1009.7 hPa WNW 3.2 km/h 8 km/h 89% 0 mm
05:14 24.4 °C 22.7 °C 1010 hPa West 3.2 km/h 9.7 km/h 90% 0 mm
05:19 24.3 °C 22.6 °C 1010 hPa Calm   6.4 km/h 90% 0 mm
05:24 24.1 °C 22.4 °C 1009.7 hPa Calm   8 km/h 90% 0 mm
05:29 24 °C 22.3 °C 1009.4 hPa Calm   4.8 km/h 90% 0 mm
05:34 23.9 °C 22.2 °C 1009.4 hPa Calm     90% 0 mm
05:39 23.8 °C 22.1 °C 1009 hPa Calm     90% 0 mm
05:44 23.8 °C 22.2 °C 1009.7 hPa North 6.4 km/h 6.4 km/h 91% 0 mm
05:49 23.7 °C 22.2 °C 1010 hPa North 6.4 km/h 11.3 km/h 91% 0 mm
05:54 23.8 °C 22.1 °C 1010.4 hPa NW 12.9 km/h 14.5 km/h 90% 0 mm
05:59 23.6 °C 21.9 °C 1010 hPa NE 4.8 km/h 20.9 km/h 90% 58.67 mm
06:04 23.1 °C 21.6 °C 1009.4 hPa East 3.2 km/h 11.3 km/h 91% 9.14 mm
06:09 22.8 °C 21.4 °C 1009.7 hPa Calm   4.8 km/h 92% 2.29 mm
06:14 22.6 °C 21.2 °C 1009.4 hPa Calm   1.6 km/h 92% 10.67 mm
06:19 22.4 °C 21.3 °C 1009.4 hPa Calm   3.2 km/h 93% 2.29 mm
06:24 22.3 °C 21.2 °C 1009.4 hPa Calm   4.8 km/h 93% 1.27 mm
06:29 22.2 °C 21.1 °C 1009.4 hPa SSW 1.6 km/h 1.6 km/h 93% 1.02 mm
06:34 22.2 °C 21.1 °C 1009.4 hPa SSW 1.6 km/h 1.6 km/h 93% 0 mm
06:39 22.2 °C 21.1 °C 1009.7 hPa SW 3.2 km/h 3.2 km/h 93% 0 mm
06:44 22.2 °C 21.1 °C 1009.7 hPa SW 3.2 km/h 4.8 km/h 93% 0 mm
06:49 22.2 °C 21.1 °C 1009.7 hPa WSW 3.2 km/h 4.8 km/h 93% 0 mm
06:54 22.3 °C 21.1 °C 1009.7 hPa SW 4.8 km/h 8 km/h 93% 0 mm
06:59 22.3 °C 21.1 °C 1009.7 hPa WSW 3.2 km/h 6.4 km/h 93% 0 mm
07:04 22.2 °C 21.1 °C 1009.7 hPa West 1.6 km/h 4.8 km/h 93% 0 mm
07:10 22.2 °C 21.1 °C 1010 hPa NNW 4.8 km/h 4.8 km/h 93% 0 mm
07:15 22.2 °C 21.1 °C 1010.4 hPa West 1.6 km/h 3.2 km/h 93% 0 mm
07:20 22.3 °C 21.1 °C 1010.4 hPa SW 1.6 km/h 4.8 km/h 93% 0 mm
07:25 22.3 °C 21.1 °C 1010.4 hPa Calm   6.4 km/h 93% 0 mm
07:30 22.3 °C 21.2 °C 1010.4 hPa Calm   1.6 km/h 93% 0 mm
07:35 22.3 °C 21.2 °C 1010.4 hPa Calm     93% 0 mm
07:40 22.3 °C 21.2 °C 1010.4 hPa Calm   1.6 km/h 93% 0 mm
07:45 22.4 °C 21.2 °C 1010.4 hPa NE 1.6 km/h 1.6 km/h 93% 0 mm
07:50 22.4 °C 21.3 °C 1010.4 hPa NE 1.6 km/h 1.6 km/h 93% 0 mm
07:55 22.5 °C 21.3 °C 1010.7 hPa NE 1.6 km/h 3.2 km/h 93% 0 mm
08:00 22.5 °C 21.3 °C 1010.7 hPa ENE 1.6 km/h 1.6 km/h 93% 0 mm
08:05 22.6 °C 21.4 °C 1011.1 hPa Calm   1.6 km/h 93% 0 mm
08:10 22.7 °C 21.5 °C 1011.1 hPa Calm   1.6 km/h 93% 0 mm
08:15 22.8 °C 21.7 °C 1011.4 hPa Calm     93% 0 mm
08:20 22.9 °C 21.7 °C 1011.4 hPa NNW 1.6 km/h 1.6 km/h 93% 0 mm
08:25 22.9 °C 21.8 °C 1011.4 hPa NNW 3.2 km/h 3.2 km/h 93% 0 mm
08:30 23.1 °C 21.9 °C 1011.7 hPa WNW 3.2 km/h 6.4 km/h 93% 0 mm
08:35 23.1 °C 21.9 °C 1011.7 hPa WNW 3.2 km/h 4.8 km/h 93% 0 mm
08:40 23.2 °C 21.8 °C 1011.7 hPa WSW 4.8 km/h 6.4 km/h 92% 0 mm
08:45 23.4 °C 22 °C 1011.7 hPa West 1.6 km/h 3.2 km/h 92% 0 mm
08:50 23.6 °C 22.2 °C 1011.7 hPa West 1.6 km/h 4.8 km/h 92% 0 mm
08:55 23.7 °C 22.3 °C 1011.7 hPa West 3.2 km/h 4.8 km/h 92% 0 mm
09:00 23.8 °C 22.4 °C 1011.7 hPa West 3.2 km/h 3.2 km/h 92% 0 mm
09:05 23.9 °C 22.5 °C 1011.7 hPa NW 3.2 km/h 4.8 km/h 92% 0 mm
09:10 24.1 °C 22.5 °C 1011.7 hPa NW 3.2 km/h 6.4 km/h 91% 0 mm
09:15 24.2 °C 22.7 °C 1011.7 hPa WNW 4.8 km/h 4.8 km/h 91% 0 mm
09:20 24.4 °C 22.9 °C 1011.7 hPa WNW 1.6 km/h 4.8 km/h 91% 0 mm
09:25 24.6 °C 22.9 °C 1011.4 hPa WNW 3.2 km/h 4.8 km/h 90% 0 mm
09:30 24.8 °C 22.9 °C 1011.4 hPa West 4.8 km/h 4.8 km/h 89% 0 mm
09:35 25.1 °C 23.2 °C 1011.4 hPa West 4.8 km/h 4.8 km/h 89% 0 mm
09:40 25.4 °C 22.9 °C 1011.4 hPa West 3.2 km/h 6.4 km/h 86% 0 mm
09:45 25.7 °C 23.6 °C 1011.4 hPa NW 1.6 km/h 4.8 km/h 88% 0 mm
09:50 25.9 °C 23.2 °C 1011.4 hPa WNW 3.2 km/h 6.4 km/h 85% 0 mm
09:55 26.1 °C 23.2 °C 1011.4 hPa WNW 4.8 km/h 6.4 km/h 84% 0 mm
10:00 26.1 °C 23.4 °C 1011.4 hPa SW 3.2 km/h 4.8 km/h 85% 0 mm
10:05 26.3 °C 23.6 °C 1011.4 hPa WNW 6.4 km/h 6.4 km/h 85% 0 mm
10:10 26.6 °C 23.6 °C 1011.4 hPa WSW 3.2 km/h 4.8 km/h 84% 0 mm
10:15 26.7 °C 23.6 °C 1011.4 hPa NW 1.6 km/h 8 km/h 83% 0 mm
10:20 26.9 °C 23.6 °C 1011.4 hPa WSW 1.6 km/h 4.8 km/h 82% 0 mm
10:25 26.9 °C 23.6 °C 1011.4 hPa West 6.4 km/h 6.4 km/h 82% 0 mm
10:30 27.1 °C 23.3 °C 1011.4 hPa SW 3.2 km/h 11.3 km/h 80% 0 mm
10:35 27.1 °C 23.1 °C 1011.4 hPa West 8 km/h 12.9 km/h 79% 0 mm
10:40 27.3 °C 23.5 °C 1011.4 hPa WSW 8 km/h 9.7 km/h 80% 0 mm
10:45 27.3 °C 23.5 °C 1011.4 hPa SW 9.7 km/h 11.3 km/h 80% 0 mm
10:50 27.3 °C 23.6 °C 1011.4 hPa SW 11.3 km/h 14.5 km/h 80% 0 mm
10:55 27.7 °C 24.4 °C 1011.4 hPa WNW 6.4 km/h 8 km/h 82% 0 mm
11:00 27.8 °C 24.3 °C 1011.4 hPa WNW 3.2 km/h 8 km/h 81% 0 mm
11:05 27.8 °C 23.6 °C 1011.4 hPa WSW 8 km/h 9.7 km/h 78% 0 mm
11:11 27.8 °C 24.1 °C 1011.4 hPa WSW 8 km/h 12.9 km/h 80% 0 mm
11:16 27.9 °C 23.7 °C 1011.7 hPa West 4.8 km/h 11.3 km/h 78% 0 mm
11:21 28.1 °C 23.8 °C 1011.7 hPa WSW 6.4 km/h 12.9 km/h 78% 0 mm
11:26 28.2 °C 24 °C 1011.7 hPa West 3.2 km/h 9.7 km/h 78% 0 mm
11:31 28.4 °C 23.6 °C 1011.7 hPa WSW 8 km/h 9.7 km/h 75% 0 mm
11:36 28.5 °C 23.8 °C 1011.7 hPa SW 6.4 km/h 9.7 km/h 76% 0 mm
11:41 28.6 °C 23.9 °C 1011.7 hPa WSW 9.7 km/h 9.7 km/h 76% 0 mm
11:46 28.7 °C 24.1 °C 1011.7 hPa SW 8 km/h 11.3 km/h 76% 0 mm
11:51 28.9 °C 24 °C 1011.7 hPa West 6.4 km/h 11.3 km/h 75% 0 mm
11:56 28.9 °C 24 °C 1011.7 hPa WSW 4.8 km/h 8 km/h 75% 0 mm
12:01 29.1 °C 24.4 °C 1011.7 hPa West 8 km/h 8 km/h 76% 0 mm
12:06 29.2 °C 24.1 °C 1011.7 hPa WSW 6.4 km/h 9.7 km/h 74% 0 mm
12:11 29.3 °C 24.2 °C 1011.7 hPa West 4.8 km/h 9.7 km/h 74% 0 mm
12:16 29.3 °C 24.2 °C 1011.7 hPa WNW 9.7 km/h 12.9 km/h 74% 0 mm
12:21 29.4 °C 24.5 °C 1011.7 hPa WNW 8 km/h 11.3 km/h 75% 0 mm
12:26 29.6 °C 24.2 °C 1011.7 hPa South 9.7 km/h 12.9 km/h 73% 0 mm
12:31 29.4 °C 24.6 °C 1011.7 hPa West 1.6 km/h 11.3 km/h 75% 0 mm
12:36 29.6 °C 24.5 °C 1011.7 hPa NNW 9.7 km/h 11.3 km/h 74% 0 mm
12:41 29.8 °C 24.7 °C 1011.7 hPa NNW 4.8 km/h 14.5 km/h 74% 0 mm
12:46 29.9 °C 23.9 °C 1011.7 hPa NW 11.3 km/h 12.9 km/h 70% 0 mm
12:52 30 °C 24.9 °C 1011.4 hPa NW 3.2 km/h 9.7 km/h 74% 0 mm
12:57 30.3 °C 24.5 °C 1011.4 hPa WSW 9.7 km/h 11.3 km/h 71% 0 mm
13:02 30.2 °C 25 °C 1011.4 hPa WNW 1.6 km/h 8 km/h 74% 0 mm
13:07 30.2 °C 24.4 °C 1011.4 hPa SW 8 km/h 12.9 km/h 71% 0 mm
13:12 30.2 °C 24.8 °C 1011.4 hPa South 3.2 km/h 9.7 km/h 73% 0 mm
13:17 30.5 °C 25.1 °C 1011.4 hPa WNW 3.2 km/h 9.7 km/h 73% 0 mm
13:22 30.7 °C 25.1 °C 1011.4 hPa West 3.2 km/h 11.3 km/h 72% 0 mm
13:27 30.9 °C 23.8 °C 1011.4 hPa WNW 9.7 km/h 14.5 km/h 66% 0 mm
13:32 30.8 °C 23.5 °C 1011.4 hPa NW 9.7 km/h 12.9 km/h 65% 0 mm
13:37 30.9 °C 24.8 °C 1011.4 hPa West 4.8 km/h 8 km/h 70% 0 mm
13:42 31.1 °C 23.7 °C 1011.1 hPa NNW 4.8 km/h 4.8 km/h 65% 0 mm
13:47 31.2 °C 24.4 °C 1011.1 hPa West 6.4 km/h 11.3 km/h 67% 0 mm
13:52 31.4 °C 23.8 °C 1011.1 hPa North 6.4 km/h 8 km/h 64% 0 mm
13:57 31.3 °C 23.7 °C 1011.1 hPa WNW 6.4 km/h 9.7 km/h 64% 0 mm
14:02 31.3 °C 23.7 °C 1011.1 hPa WSW 1.6 km/h 6.4 km/h 64% 0 mm
14:07 31.5 °C 23.3 °C 1011.1 hPa West 8 km/h 9.7 km/h 62% 0 mm
14:12 31.3 °C 23.4 °C 1011.1 hPa NW 6.4 km/h 6.4 km/h 63% 0 mm
14:17 31.4 °C 24.8 °C 1011.1 hPa NW 3.2 km/h 12.9 km/h 68% 0 mm
14:22 31.3 °C 23.4 °C 1011.1 hPa NW 6.4 km/h 11.3 km/h 63% 0 mm
14:27 31.6 °C 23.2 °C 1010.7 hPa NW 4.8 km/h 8 km/h 61% 0 mm
14:32 31.8 °C 24.2 °C 1010.7 hPa NW 3.2 km/h 11.3 km/h 64% 0 mm
14:37 32 °C 23.8 °C 1010.7 hPa WNW 12.9 km/h 12.9 km/h 62% 0 mm
14:43 32 °C 24.6 °C 1010.7 hPa WNW 3.2 km/h 9.7 km/h 65% 0 mm
14:48 32 °C 23.3 °C 1010.7 hPa NNE 3.2 km/h 11.3 km/h 60% 0 mm
14:53 32.2 °C 23.4 °C 1010.7 hPa Calm   4.8 km/h 60% 0 mm
14:58 32.3 °C 23.8 °C 1010.7 hPa WNW 6.4 km/h 14.5 km/h 61% 0 mm
15:03 32 °C 23.6 °C 1010.7 hPa WNW 4.8 km/h 6.4 km/h 61% 0 mm
15:08 31.8 °C 24.2 °C 1010.7 hPa WNW 1.6 km/h 6.4 km/h 64% 0 mm
15:13 32.1 °C 24.1 °C 1010.7 hPa NW 3.2 km/h 6.4 km/h 63% 0 mm
15:18 32.2 °C 23.7 °C 1010.4 hPa Calm   1.6 km/h 61% 0 mm
15:23 32.3 °C 23.6 °C 1010.4 hPa NNW 3.2 km/h 9.7 km/h 60% 0 mm
15:28 32.4 °C 23.3 °C 1010.4 hPa WSW 1.6 km/h 11.3 km/h 59% 0 mm
15:33 32.4 °C 23.9 °C 1010.4 hPa West 6.4 km/h 11.3 km/h 61% 0 mm
15:38 32.2 °C 23.2 °C 1010 hPa Calm   6.4 km/h 59% 0 mm
15:43 32.7 °C 24.2 °C 1010 hPa NNW 4.8 km/h 8 km/h 61% 0 mm
15:48 32.5 °C 23.7 °C 1010 hPa West 6.4 km/h 12.9 km/h 60% 0 mm
15:53 32.5 °C 23.7 °C 1010 hPa NNW 4.8 km/h 11.3 km/h 60% 0 mm
15:58 32.7 °C 24.2 °C 1010 hPa Calm   4.8 km/h 61% 0 mm
16:03 33.1 °C 23.4 °C 1010 hPa NW 1.6 km/h 6.4 km/h 57% 0 mm
16:08 32.9 °C 23.2 °C 1010 hPa NW 11.3 km/h 11.3 km/h 57% 0 mm
16:13 32.9 °C 23.8 °C 1010 hPa West 11.3 km/h 12.9 km/h 59% 0 mm
16:18 32.7 °C 23.7 °C 1009.7 hPa NW 4.8 km/h 12.9 km/h 59% 0 mm
16:23 32.7 °C 23.7 °C 1010 hPa WNW 6.4 km/h 9.7 km/h 59% 0 mm
16:28 32.8 °C 22.8 °C 1009.7 hPa NW 3.2 km/h 9.7 km/h 56% 0 mm
16:33 32.8 °C 23.4 °C 1009.7 hPa NW 8 km/h 11.3 km/h 58% 0 mm
16:38 32.8 °C 22.9 °C 1009.7 hPa Calm   9.7 km/h 56% 0 mm
16:43 32.9 °C 23.3 °C 1009.7 hPa NW 3.2 km/h 8 km/h 57% 0 mm
16:48 32.9 °C 23.6 °C 1009.7 hPa NW 4.8 km/h 8 km/h 58% 0 mm
16:53 32.9 °C 23.6 °C 1009.4 hPa NW 1.6 km/h 4.8 km/h 58% 0 mm
16:58 33 °C 23.3 °C 1009.4 hPa WNW 4.8 km/h 6.4 km/h 57% 0 mm
17:03 33 °C 22.8 °C 1009.4 hPa West 3.2 km/h 9.7 km/h 55% 0 mm
17:08 33 °C 23.3 °C 1009.4 hPa WSW 4.8 km/h 8 km/h 57% 0 mm
17:13 33.1 °C 24 °C 1009.4 hPa NNW 6.4 km/h 9.7 km/h 59% 0 mm
17:18 32.9 °C 23.6 °C 1009.4 hPa NW 11.3 km/h 11.3 km/h 58% 0 mm
17:23 32.9 °C 23.8 °C 1009.4 hPa WNW 6.4 km/h 9.7 km/h 59% 0 mm
17:28 32.8 °C 23.2 °C 1009.4 hPa West 4.8 km/h 6.4 km/h 57% 0 mm
17:33 32.9 °C 23.9 °C 1009.4 hPa NW 6.4 km/h 8 km/h 59% 0 mm
17:38 33.1 °C 23.4 °C 1009.4 hPa NNW 8 km/h 14.5 km/h 57% 0 mm
17:43 33 °C 23.3 °C 1009.4 hPa WNW 6.4 km/h 12.9 km/h 57% 0 mm
17:48 32.8 °C 24.1 °C 1009 hPa WNW 4.8 km/h 9.7 km/h 60% 0 mm
17:53 32.8 °C 24 °C 1009 hPa WNW 4.8 km/h 6.4 km/h 60% 0 mm
17:58 32.8 °C 24.1 °C 1009 hPa WNW 3.2 km/h 8 km/h 60% 0 mm
18:03 32.9 °C 24.2 °C 1009.4 hPa NW 4.8 km/h 8 km/h 60% 0 mm
18:08 33.1 °C 24 °C 1009 hPa NNW 4.8 km/h 8 km/h 59% 0 mm
18:13 33.1 °C 24 °C 1009 hPa WNW 3.2 km/h 6.4 km/h 59% 0 mm
18:19 33.1 °C 23.7 °C 1009 hPa WNW 6.4 km/h 8 km/h 58% 0 mm
18:24 32.9 °C 23.9 °C 1009 hPa NW 6.4 km/h 8 km/h 59% 0 mm
18:29 32.9 °C 24.4 °C 1009 hPa WNW 9.7 km/h 9.7 km/h 61% 0 mm
18:34 32.9 °C 23.9 °C 1009 hPa NW 6.4 km/h 6.4 km/h 59% 0 mm
18:39 32.9 °C 24.2 °C 1009 hPa NW 3.2 km/h 6.4 km/h 60% 0 mm
18:44 33 °C 24.2 °C 1009 hPa NNW 3.2 km/h 6.4 km/h 60% 0 mm
18:49 33 °C 24.8 °C 1009 hPa West 4.8 km/h 6.4 km/h 62% 0 mm
18:54 33 °C 24.2 °C 1009.4 hPa West 3.2 km/h 6.4 km/h 60% 0 mm
18:59 33 °C 24.2 °C 1009.4 hPa West 3.2 km/h 8 km/h 60% 0 mm
19:04 33 °C 24.8 °C 1009.4 hPa WSW 4.8 km/h 6.4 km/h 62% 0 mm
19:09 32.9 °C 24.4 °C 1009.4 hPa WNW 3.2 km/h 6.4 km/h 61% 0 mm
19:14 32.6 °C 24.7 °C 1009.4 hPa West 1.6 km/h 3.2 km/h 63% 0 mm
19:19 32.4 °C 24.2 °C 1009.4 hPa West 1.6 km/h 3.2 km/h 62% 0 mm
19:24 32.7 °C 24.4 °C 1009.4 hPa WSW 4.8 km/h 6.4 km/h 62% 0 mm
19:29 32.7 °C 24.9 °C 1009.4 hPa SW 1.6 km/h 1.6 km/h 64% 0 mm
19:34 32.4 °C 24.7 °C 1009.4 hPa SW 3.2 km/h 3.2 km/h 64% 0 mm
19:39 32.1 °C 24.4 °C 1009.4 hPa WSW 1.6 km/h 4.8 km/h 64% 0 mm
19:44 31.8 °C 24.4 °C 1009.4 hPa Calm   3.2 km/h 65% 0 mm
19:49 31.8 °C 24.4 °C 1009.7 hPa Calm     65% 0 mm
19:54 31.7 °C 24.8 °C 1009.4 hPa Calm   1.6 km/h 67% 0 mm
19:59 31.4 °C 24.3 °C 1009.7 hPa Calm   1.6 km/h 66% 0 mm
20:04 31.4 °C 24 °C 1009.7 hPa SSW 1.6 km/h 1.6 km/h 65% 0 mm
20:09 31.3 °C 24.5 °C 1009.7 hPa Calm   1.6 km/h 67% 0 mm
20:14 31.3 °C 25.9 °C 1009.7 hPa South 1.6 km/h 1.6 km/h 73% 0 mm
20:19 30.7 °C 25.6 °C 1009.7 hPa Calm   1.6 km/h 74% 0 mm
20:24 30.4 °C 25.3 °C 1009.4 hPa Calm   1.6 km/h 74% 0 mm
20:29 30.3 °C 25.1 °C 1009.7 hPa NE 1.6 km/h 3.2 km/h 74% 0 mm
20:34 29.9 °C 24.8 °C 1009.7 hPa NE 1.6 km/h 3.2 km/h 74% 0 mm
20:39 29.8 °C 24.5 °C 1009.7 hPa Calm   1.6 km/h 73% 0 mm
20:44 29.8 °C 24.2 °C 1009.7 hPa Calm   1.6 km/h 72% 0 mm
20:50 29.9 °C 24.1 °C 1009.7 hPa Calm     71% 0 mm
20:55 29.8 °C 24.7 °C 1009.7 hPa NE 1.6 km/h 3.2 km/h 74% 0 mm
21:00 29.3 °C 24.2 °C 1010 hPa NE 1.6 km/h 3.2 km/h 74% 0 mm
21:05 29.2 °C 24.3 °C 1010 hPa Calm   1.6 km/h 75% 0 mm
21:10 29.5 °C 23 °C 1010 hPa NNW 1.6 km/h 6.4 km/h 68% 0 mm
21:15 29.8 °C 23.6 °C 1010 hPa NE 1.6 km/h 3.2 km/h 69% 0 mm
21:20 29.6 °C 23.5 °C 1010 hPa NNE 1.6 km/h 3.2 km/h 70% 0 mm
21:25 29.3 °C 23.6 °C 1010 hPa Calm     71% 0 mm
21:30 29 °C 23.7 °C 1010 hPa Calm     73% 0 mm
21:35 28.8 °C 23.5 °C 1010 hPa Calm     73% 0 mm
21:40 28.7 °C 23.4 °C 1010 hPa Calm   1.6 km/h 73% 0 mm
21:45 28.7 °C 23.3 °C 1010.4 hPa Calm   1.6 km/h 73% 0 mm
21:50 28.5 °C 23.4 °C 1010.4 hPa Calm     74% 0 mm
21:55 28.5 °C 23.2 °C 1010.4 hPa Calm   1.6 km/h 73% 0 mm
22:00 28.5 °C 23.4 °C 1010.4 hPa Calm   1.6 km/h 74% 0 mm
22:05 28.2 °C 23.4 °C 1010.4 hPa Calm     75% 0 mm
22:10 27.8 °C 23.4 °C 1010.4 hPa Calm     77% 0 mm
22:15 27.7 °C 23.3 °C 1010.4 hPa Calm     77% 0 mm
22:20 27.8 °C 23.4 °C 1010.7 hPa Calm     77% 0 mm
22:25 27.7 °C 23.3 °C 1010.7 hPa Calm     77% 0 mm
22:30 27.6 °C 23 °C 1010.7 hPa Calm     76% 0 mm
22:35 27.8 °C 22.9 °C 1010.7 hPa Calm   1.6 km/h 75% 0 mm
22:40 27.9 °C 23.1 °C 1010.7 hPa Calm     75% 0 mm
22:45 27.9 °C 22.9 °C 1010.7 hPa Calm   1.6 km/h 74% 0 mm
22:50 28 °C 22.9 °C 1010.7 hPa Calm     74% 0 mm
22:55 27.8 °C 23 °C 1010.7 hPa Calm     75% 0 mm
23:00 27.4 °C 23.1 °C 1010.7 hPa Calm     77% 0 mm
23:05 27.2 °C 23 °C 1010.7 hPa Calm     78% 0 mm
23:10 27.1 °C 22.9 °C 1010.7 hPa Calm     78% 0 mm
23:15 27.1 °C 22.9 °C 1010.7 hPa Calm     78% 0 mm
23:20 26.6 °C 23 °C 1011.1 hPa Calm   1.6 km/h 81% 0 mm
23:25 26.2 °C 22.9 °C 1011.1 hPa Calm     82% 0 mm
23:30 26.2 °C 22.8 °C 1011.1 hPa Calm     82% 0 mm
23:35 26.2 °C 22.9 °C 1010.7 hPa Calm     82% 0 mm
23:40 25.8 °C 22.9 °C 1010.7 hPa Calm     84% 0 mm
23:45 25.8 °C 22.9 °C 1010.7 hPa NNE 1.6 km/h 3.2 km/h 84% 0 mm
23:50 25.7 °C 23 °C 1010.7 hPa Calm     85% 0 mm
23:55 25.6 °C 22.8 °C 1010.7 hPa Calm     85% 0 mm
Compliments of Weather Underground